Olympia Regional Airport
KOLM : now visible

Airfield :











YOU CAN JOIN US ON...

 
LOGIN :

Register | Disclaimer

   EN    FR    IT 

 









Legend :    VFR   Marginal VFR   IFR   Intensive IFR   Very Intensive IFR
Visi :
Ceiling :
>= 8 km
>= 3000ft
5 to 8 km
1000 to 3000 ft
1500m to 5 km
500 to 1000 ft
800 to 1500m
200 to 500 ft
< 800m
< 200 ft
Symbols :   Thunderstorms  Fog  Heavy snow  Heavy precipitations  Wind > 20 kt






- Airport Elevation : 209 ft
- IATA code : OLM


KOLM - Olympia Regional

CURRENT METAR :
  • 080654Z AUTO 27004KT 10SM -RA FEW015 BKN031 OVC049 04/03 A3035 RMK AO2 RAB06 SLP277 P0004 T00440033

EXPIRED METARs :
  • 080634Z AUTO 30010G19KT 270V340 4SM RA BR FEW015 BKN026 OVC090 05/03 A3035 RMK AO2 RAB06 P0003 T00500033
  • 080554Z AUTO 21007KT 10SM SCT035 BKN070 05/04 A3032 RMK AO2 RAE0457B27E42 SLP268 P0000 60016 T00500039 10089 20033 53020
  • 080502Z AUTO 22007KT 10SM FEW024 SCT030 BKN035 04/03 A3030 RMK AO2 RAE0457 P0000 T00390028
  • 080443Z AUTO 23007KT 3SM -RA BR FEW019 BKN027 OVC034 03/03 A3030 RMK AO2 RAB22 P0014 T00330028
  • 080433Z AUTO 28006G18KT 1 3/4SM +RA BR FEW020 BKN027 OVC070 04/02 A3030 RMK AO2 VIS 1V5 RAB22 P0007 T00390022

TAF KOLM
Valid from the 08 at 06:00 until the 09 at 06:00 UTC


080520Z 0806/0906 21008KT P6SM -SHRA SCT030 BKN050
FM081200 21004KT P6SM SCT015 BKN050
TEMPO 0812/0816 BKN025 OVC050
FM082100 20005KT P6SM BKN080
KZSE FIR / North America



MET'MAP, your aeronautical weather chart ! - Copyright ORBIFLY December 2007 - Disclaimer

ORBIFLY MET'MAP TEAM :

Programming & Development : Alexandra Zaïnal
Original concept : Baudouin d'Aumeries
Technical & hardware support : Manuel Goepfert
Assistance : Marc-Olivier Méhu




SOURCES & CREDITS :

   NOAA       Earth
Advisory